Saturday, November 18, 2017, 12:03 PM GMT
Back to Local

CYOW, Ottawa Int'L. Ont.

Location: , , Canada Lat: 45.317
Local Time: 12:03 PM GMT (12:03 GMT) Lon: -75.667
Time Zone: GMT Elev: 380 ft

Show me the last for .
Show Decoded

2017-11-18 11:00 METAR CYOW 181100Z 07008KT 15SM FEW120 SCT240 M04/M08 A2980 RMK AC2CI1 SLP099 =
2017-11-18 10:00 METAR CYOW 181000Z 07008KT 15SM BKN120 M04/M07 A2984 RMK AC7 SLP112 =
2017-11-18 09:00 METAR CYOW 180900Z 08006KT 15SM BKN110 M04/M08 A2987 RMK AC5 SLP123 =
2017-11-18 08:00 METAR CYOW 180800Z 08006KT 15SM BKN120 M04/M08 A2992 RMK AC7 SLP141 =
2017-11-18 07:00 METAR CYOW 180700Z 10007KT 15SM SCT130 BKN140 M04/M09 A2995 RMK AC4AC2 SLP148 =
2017-11-18 06:00 METAR CYOW 180600Z 11004KT 15SM BKN130 M06/M10 A2995 RMK AC5 SLP152 =
2017-11-18 05:00 METAR CYOW 180500Z 10004KT 15SM SCT130 M05/M10 A2999 RMK AC4 SLP163 =
2017-11-18 04:00 METAR CYOW 180400Z 11005KT 15SM BKN130 M06/M09 A3001 RMK AC6 SLP170 =
2017-11-18 03:00 METAR CYOW 180300Z VRB02KT 15SM FEW240 M06/M11 A3004 RMK CI1 SLP183 =
2017-11-18 02:00 METAR CYOW 180200Z 18004KT 15SM SKC M06/M11 A3005 RMK SLP184 =
2017-11-18 01:00 METAR CYOW 180100Z 00000KT 15SM SKC M05/M11 A3007 RMK SLP193 =
2017-11-18 00:00 METAR CYOW 180000Z 24003KT 15SM SKC M04/M11 A3009 RMK SLP199 =
2017-11-17 23:00 METAR CYOW 172300Z 24004KT 15SM SKC M04/M11 A3009 RMK PRESFR SLP196 =
2017-11-17 22:00 METAR CYOW 172200Z 27006KT 15SM FEW180 FEW250 M03/M11 A3012 RMK AC1CI1 AC TR CI
                 TR SLP207 =
2017-11-17 21:00 METAR CYOW 172100Z 26008KT 15SM FEW180 FEW250 M02/M11 A3012 RMK AC1CI1 AC TR
                 SLP206 =
2017-11-17 20:00 METAR CYOW 172000Z 29013KT 15SM FEW180 FEW250 M01/M11 A3012 RMK AC1CI1 AC TR
                 SLP208 =
2017-11-17 19:00 METAR CYOW 171900Z 28015KT 15SM FEW180 FEW250 M02/M11 A3012 RMK AC1CI1 SLP209 =
2017-11-17 18:00 METAR CYOW 171800Z 28012G19KT 15SM FEW180 FEW250 M02/M10 A3014 RMK AC1CI1 AC TR
                 SLP214 =
2017-11-17 17:00 METAR CYOW 171700Z 29014G19KT 15SM FEW025 FEW180 FEW250 M03/M11 A3016 RMK
                 SC1AC1CI1 SC TR AC TR SLP220 =
2017-11-17 16:00 METAR CYOW 171600Z 28012KT 15SM FEW025 M04/M11 A3017 RMK SC1 SC TR SLP223 =
2017-11-17 15:00 METAR CYOW 171500Z 30013KT 15SM FEW025 M05/M11 A3018 RMK SC1 SLP229 =
2017-11-17 14:00 METAR CYOW 171400Z 31010G16KT 15SM SCT023 M05/M11 A3018 RMK SC3 SLP227 =
2017-11-17 13:00 METAR CYOW 171300Z 30012G18KT 15SM BKN024 M06/M11 A3016 RMK SC5 SLP222 =

Support USWX by starting your Amazon purchase here.